Time;durP1;ratioP1;P1;durP2;ratioP2;P2;SDS_P1;SDS_P2;PMS_P1;PMS_P2;Temp;Humidity;BMP_temperature;BMP_pressure;BME280_temperature;BME280_humidity;BME280_pressure;Samples;Min_cycle;Max_cycle;Signal;HPM_P1;HPM_P2
2020/12/21 00:00:30;;;;;;;9.40;7.85;;;7.10;99.90;;;;;;5031859;28;20859;-75
2020/12/21 00:02:56;;;;;;;9.50;7.88;;;7.10;99.90;;;;;;5049295;28;20574;-74
2020/12/21 00:05:22;;;;;;;9.65;7.88;;;7.10;99.90;;;;;;5049925;28;20035;-75
2020/12/21 00:07:47;;;;;;;9.85;8.60;;;7.10;99.90;;;;;;5049997;28;20048;-75
2020/12/21 00:10:14;;;;;;;11.52;8.45;;;7.10;99.90;;;;;;5032396;28;20028;-74
2020/12/21 00:12:40;;;;;;;12.02;9.27;;;7.10;99.90;;;;;;5049488;28;20021;-74
2020/12/21 00:15:06;;;;;;;10.43;7.97;;;7.20;99.90;;;;;;5049400;28;20482;-76
2020/12/21 00:17:33;;;;;;;9.45;7.53;;;7.10;99.90;;;;;;5050082;28;20428;-75
2020/12/21 00:19:59;;;;;;;9.20;7.65;;;7.10;99.90;;;;;;5049867;28;20461;-74
2020/12/21 00:22:24;;;;;;;9.18;8.18;;;7.10;99.90;;;;;;5031957;28;20036;-74
2020/12/21 00:24:50;;;;;;;8.57;7.43;;;7.10;99.90;;;;;;5031638;28;20447;-75
2020/12/21 00:27:16;;;;;;;10.57;7.72;;;7.20;99.90;;;;;;5049947;28;20385;-77
2020/12/21 00:29:41;;;;;;;11.02;8.10;;;7.10;99.90;;;;;;5053180;28;20103;-73
2020/12/21 00:32:07;;;;;;;10.95;8.45;;;7.20;99.90;;;;;;5053985;28;20021;-74
2020/12/21 00:34:32;;;;;;;10.07;8.40;;;7.20;99.90;;;;;;5053471;28;20029;-73
2020/12/21 00:36:58;;;;;;;12.48;9.57;;;7.10;99.90;;;;;;5053606;28;20481;-74
2020/12/21 00:39:24;;;;;;;12.43;9.35;;;7.20;99.90;;;;;;5053562;28;20029;-74
2020/12/21 00:41:50;;;;;;;7.95;6.70;;;7.10;99.90;;;;;;5035211;28;20122;-74
2020/12/21 00:44:16;;;;;;;7.50;6.50;;;7.10;99.90;;;;;;5052572;28;20028;-73
2020/12/21 00:46:42;;;;;;;8.10;6.35;;;7.10;99.90;;;;;;5053241;28;20242;-74
2020/12/21 00:49:08;;;;;;;7.72;6.93;;;7.00;99.90;;;;;;5053150;28;20144;-74
2020/12/21 00:51:35;;;;;;;7.63;6.20;;;7.00;99.90;;;;;;5053394;28;20327;-74
2020/12/21 00:54:01;;;;;;;10.13;5.80;;;7.00;99.90;;;;;;5052777;28;20115;-74
2020/12/21 00:56:27;;;;;;;6.57;5.53;;;7.00;99.90;;;;;;5053476;28;20048;-74
2020/12/21 00:58:53;;;;;;;5.65;5.10;;;6.90;99.90;;;;;;5052470;28;20497;-74
2020/12/21 01:01:19;;;;;;;6.22;5.63;;;6.80;99.90;;;;;;5052908;28;20478;-75
2020/12/21 01:03:44;;;;;;;7.32;5.80;;;6.80;99.90;;;;;;5052306;28;20074;-74
2020/12/21 01:06:12;;;;;;;6.00;5.43;;;6.70;99.90;;;;;;5063728;23;20056;-73
2020/12/21 01:08:38;;;;;;;5.78;5.20;;;6.50;99.90;;;;;;5050915;28;20099;-73
2020/12/21 01:11:13;;;;;;;6.25;5.43;;;6.40;99.90;;;;;;5052216;28;20120;-73
2020/12/21 01:13:40;;;;;;;7.78;5.80;;;6.30;99.90;;;;;;5070123;28;20475;-74
2020/12/21 01:16:06;;;;;;;7.65;5.82;;;6.30;99.90;;;;;;5072029;28;20021;-72
2020/12/21 01:18:31;;;;;;;6.47;5.80;;;6.20;99.90;;;;;;5071760;28;20025;-71
2020/12/21 01:20:57;;;;;;;7.93;5.78;;;6.20;99.90;;;;;;5071988;28;20042;-69
2020/12/21 01:23:23;;;;;;;9.00;6.20;;;6.30;99.90;;;;;;5071455;28;20081;-71
2020/12/21 01:25:49;;;;;;;6.20;5.60;;;6.20;99.90;;;;;;5069558;28;20106;-73
2020/12/21 01:28:15;;;;;;;8.52;6.55;;;6.30;99.90;;;;;;5070624;28;20064;-74
2020/12/21 01:30:40;;;;;;;7.80;6.53;;;6.30;99.90;;;;;;5072036;28;20060;-74
2020/12/21 01:33:06;;;;;;;6.13;5.38;;;6.30;99.90;;;;;;5071051;28;20025;-73
2020/12/21 01:35:32;;;;;;;5.78;5.18;;;6.30;99.90;;;;;;5071967;28;20031;-73
2020/12/21 01:37:58;;;;;;;9.90;6.13;;;6.20;99.90;;;;;;5070137;28;20384;-70
2020/12/21 01:40:23;;;;;;;6.88;5.78;;;6.20;99.90;;;;;;5069083;28;20064;-73
2020/12/21 01:42:49;;;;;;;6.45;5.68;;;6.20;99.90;;;;;;5071058;28;20021;-74
2020/12/21 01:45:15;;;;;;;10.48;5.65;;;6.10;99.90;;;;;;5070194;28;20021;-73
2020/12/21 01:47:41;;;;;;;9.07;6.07;;;6.10;99.90;;;;;;5071430;28;20032;-73
2020/12/21 01:50:07;;;;;;;7.65;5.88;;;6.10;99.90;;;;;;5071209;28;20036;-72
2020/12/21 01:52:34;;;;;;;6.68;5.90;;;6.00;99.90;;;;;;5073854;28;20047;-72
2020/12/21 01:55:01;;;;;;;6.78;6.10;;;6.00;99.90;;;;;;5070824;28;20107;-73
2020/12/21 01:57:26;;;;;;;6.90;6.00;;;5.90;99.90;;;;;;5071119;28;20066;-70
2020/12/21 01:59:52;;;;;;;9.20;6.03;;;5.80;99.90;;;;;;5070944;28;20163;-72
2020/12/21 02:02:18;;;;;;;6.30;5.60;;;5.80;99.90;;;;;;5069576;28;20610;-73
2020/12/21 02:04:43;;;;;;;8.45;5.00;;;5.70;99.90;;;;;;5070272;28;20041;-73
2020/12/21 02:07:15;;;;;;;8.23;5.78;;;5.60;99.90;;;;;;5069480;28;20048;-72
2020/12/21 02:09:42;;;;;;;12.25;8.55;;;5.50;99.90;;;;;;5070749;28;20035;-72
2020/12/21 02:12:11;;;;;;;9.27;6.60;;;5.40;99.90;;;;;;5070785;28;20081;-74
2020/12/21 02:14:37;;;;;;;11.98;8.43;;;5.40;99.90;;;;;;5070195;28;20100;-71
2020/12/21 02:17:03;;;;;;;8.43;6.75;;;5.30;99.90;;;;;;5070760;28;20055;-72
2020/12/21 02:19:29;;;;;;;12.57;7.72;;;5.20;99.90;;;;;;5072476;28;20036;-71
2020/12/21 02:21:55;;;;;;;12.27;7.10;;;5.10;99.90;;;;;;5070783;28;20017;-74
2020/12/21 02:24:20;;;;;;;9.18;7.18;;;5.10;99.90;;;;;;5070074;28;20366;-71
2020/12/21 02:26:46;;;;;;;8.60;6.78;;;5.00;99.90;;;;;;5070647;28;20444;-71
2020/12/21 02:29:12;;;;;;;9.13;6.95;;;4.80;99.90;;;;;;5070234;28;20334;-72
2020/12/21 02:31:38;;;;;;;12.13;8.75;;;4.70;99.90;;;;;;5070214;28;20112;-71
2020/12/21 02:34:03;;;;;;;11.80;8.77;;;4.70;99.90;;;;;;5069770;28;20020;-72
2020/12/21 02:36:29;;;;;;;9.50;7.85;;;4.60;99.90;;;;;;5070358;28;20043;-71
2020/12/21 02:38:54;;;;;;;10.70;8.05;;;4.50;99.90;;;;;;5070424;28;20028;-72
2020/12/21 02:41:21;;;;;;;8.38;7.28;;;4.50;99.90;;;;;;5070635;28;20480;-71
2020/12/21 02:43:46;;;;;;;10.45;8.20;;;4.40;99.90;;;;;;5070088;28;20024;-72
2020/12/21 02:46:16;;;;;;;10.75;8.38;;;4.40;99.90;;;;;;5070202;28;20472;-71
2020/12/21 02:48:47;;;;;;;10.55;7.93;;;4.30;99.90;;;;;;5070461;28;20489;-71
2020/12/21 02:51:16;;;;;;;13.88;8.90;;;4.20;99.90;;;;;;5069940;28;20025;-71
2020/12/21 02:53:41;;;;;;;12.73;9.05;;;4.20;99.90;;;;;;5069956;28;20139;-70
2020/12/21 02:56:07;;;;;;;11.30;9.30;;;4.10;99.90;;;;;;5070619;28;20115;-70
2020/12/21 02:58:33;;;;;;;15.98;9.52;;;4.10;99.90;;;;;;5071043;28;20151;-71
2020/12/21 03:00:58;;;;;;;13.88;9.82;;;4.00;99.90;;;;;;5070540;28;20085;-70
2020/12/21 03:03:24;;;;;;;16.58;9.60;;;4.00;99.90;;;;;;5072039;28;20021;-71
2020/12/21 03:05:49;;;;;;;16.38;10.27;;;4.00;99.90;;;;;;5072051;28;20036;-72
2020/12/21 03:08:16;;;;;;;12.85;9.02;;;3.80;99.90;;;;;;5070649;28;20052;-72
2020/12/21 03:10:42;;;;;;;13.95;10.15;;;4.00;99.90;;;;;;5072053;28;20073;-69
2020/12/21 03:13:08;;;;;;;10.70;9.23;;;4.00;99.90;;;;;;5068523;28;20173;-71
2020/12/21 03:15:34;;;;;;;10.73;8.90;;;3.90;99.90;;;;;;5070042;28;20025;-70
2020/12/21 03:17:59;;;;;;;14.55;9.30;;;3.80;99.90;;;;;;5070037;28;20028;-70
2020/12/21 03:20:25;;;;;;;12.55;9.68;;;3.80;99.90;;;;;;5069770;28;20535;-71
2020/12/21 03:22:51;;;;;;;12.63;9.98;;;3.70;99.90;;;;;;5069670;28;20028;-72
2020/12/21 03:25:17;;;;;;;12.65;9.77;;;3.70;99.90;;;;;;5069675;28;20480;-73
2020/12/21 03:27:43;;;;;;;12.95;10.25;;;3.60;99.90;;;;;;5069958;28;20036;-69
2020/12/21 03:30:10;;;;;;;11.75;9.18;;;3.60;99.90;;;;;;5069614;28;20026;-71
2020/12/21 03:32:35;;;;;;;13.02;9.93;;;3.50;99.90;;;;;;5069750;28;20051;-70
2020/12/21 03:35:03;;;;;;;12.80;9.95;;;3.50;99.90;;;;;;5068952;28;20472;-71
2020/12/21 03:37:32;;;;;;;16.42;10.57;;;3.40;99.90;;;;;;5069486;28;20016;-72
2020/12/21 03:40:02;;;;;;;15.25;10.25;;;3.40;99.90;;;;;;5069647;28;20052;-70
2020/12/21 03:42:28;;;;;;;15.13;10.32;;;3.40;99.90;;;;;;5068500;28;20419;-70
2020/12/21 03:44:53;;;;;;;14.75;11.10;;;3.40;99.90;;;;;;5068898;28;20028;-70
2020/12/21 03:47:19;;;;;;;14.63;11.27;;;3.40;99.90;;;;;;5067941;28;20124;-73
2020/12/21 03:49:45;;;;;;;13.27;9.85;;;3.40;99.90;;;;;;5069440;28;20400;-70
2020/12/21 03:52:10;;;;;;;12.60;10.10;;;3.20;99.90;;;;;;5069286;28;20621;-71
2020/12/21 03:54:36;;;;;;;16.35;11.02;;;3.20;99.90;;;;;;5070988;28;20066;-69
2020/12/21 03:57:02;;;;;;;17.02;10.57;;;3.20;99.90;;;;;;5071708;28;20029;-71
2020/12/21 03:59:27;;;;;;;18.42;11.10;;;3.10;99.90;;;;;;5069337;28;20021;-73
2020/12/21 04:01:53;;;;;;;14.85;10.57;;;3.20;99.90;;;;;;5067994;28;20107;-71
2020/12/21 04:04:19;;;;;;;16.73;10.90;;;3.10;99.90;;;;;;5071335;28;20116;-69
2020/12/21 04:06:44;;;;;;;15.32;10.77;;;3.10;99.90;;;;;;5071931;28;20035;-70
2020/12/21 04:09:10;;;;;;;17.70;12.15;;;3.00;99.90;;;;;;5073078;28;20032;-72
2020/12/21 04:11:36;;;;;;;16.75;12.02;;;3.10;99.90;;;;;;5073064;28;20457;-75
2020/12/21 04:14:01;;;;;;;18.50;12.38;;;3.00;99.90;;;;;;5070779;28;20028;-70
2020/12/21 04:16:27;;;;;;;21.33;13.68;;;3.10;99.90;;;;;;5072984;28;20105;-70
2020/12/21 04:18:52;;;;;;;17.20;11.73;;;3.10;99.90;;;;;;5072646;28;20028;-71
2020/12/21 04:21:18;;;;;;;19.45;13.02;;;3.20;99.90;;;;;;5072710;28;20032;-73
2020/12/21 04:23:44;;;;;;;22.23;12.93;;;3.20;99.90;;;;;;5072645;28;20028;-72
2020/12/21 04:26:09;;;;;;;21.40;12.18;;;3.20;99.90;;;;;;5072844;28;20028;-70
2020/12/21 04:28:35;;;;;;;17.60;11.88;;;3.20;99.90;;;;;;5072723;28;20146;-71
2020/12/21 04:31:03;;;;;;;17.13;11.93;;;3.20;99.90;;;;;;5071530;28;20031;-71
2020/12/21 04:33:28;;;;;;;16.80;11.30;;;3.20;99.90;;;;;;5071989;28;20032;-72
2020/12/21 04:35:54;;;;;;;17.58;11.38;;;3.10;99.90;;;;;;5071358;28;20028;-71
2020/12/21 04:38:20;;;;;;;20.73;13.15;;;3.20;99.90;;;;;;5072485;28;20086;-71
2020/12/21 04:40:55;;;;;;;22.08;14.10;;;3.20;99.90;;;;;;5072789;28;20100;-71
2020/12/21 04:43:22;;;;;;;24.73;14.85;;;3.20;99.90;;;;;;5071872;28;20111;-73
2020/12/21 04:45:53;;;;;;;26.67;14.68;;;3.30;99.90;;;;;;5072298;28;20124;-70
2020/12/21 04:48:23;;;;;;;25.33;15.23;;;3.30;99.90;;;;;;5072636;28;20039;-69
2020/12/21 04:50:53;;;;;;;23.17;15.10;;;3.40;99.90;;;;;;5071215;28;20239;-70
2020/12/21 04:53:23;;;;;;;30.15;15.23;;;3.40;99.90;;;;;;5070600;28;20102;-73
2020/12/21 04:55:49;;;;;;;23.65;14.05;;;3.40;99.90;;;;;;5072463;28;20472;-69
2020/12/21 04:58:15;;;;;;;25.88;14.38;;;3.40;99.90;;;;;;5070780;28;20028;-71
2020/12/21 05:00:40;;;;;;;23.40;13.85;;;3.40;99.90;;;;;;5072306;28;20445;-70
2020/12/21 05:03:07;;;;;;;21.60;12.73;;;3.40;99.90;;;;;;5070623;28;20036;-70
2020/12/21 05:05:41;;;;;;;23.08;12.82;;;3.40;99.90;;;;;;5072267;28;20067;-70
2020/12/21 05:08:20;;;;;;;19.38;12.35;;;3.40;99.90;;;;;;5072430;28;20500;-70
2020/12/21 05:10:57;;;;;;;26.65;13.40;;;3.40;99.90;;;;;;5072263;28;20111;-71
2020/12/21 05:13:24;;;;;;;23.45;13.40;;;3.50;99.90;;;;;;5071781;28;20048;-70
2020/12/21 05:15:54;;;;;;;25.33;13.20;;;3.50;99.90;;;;;;5071018;28;20082;-69
2020/12/21 05:18:24;;;;;;;22.70;13.82;;;3.40;99.90;;;;;;5072373;28;20055;-69
2020/12/21 05:21:13;;;;;;;24.73;13.35;;;3.40;99.90;;;;;;5072135;28;20021;-73
2020/12/21 05:23:39;;;;;;;23.70;13.65;;;3.40;99.90;;;;;;5070367;28;20033;-70
2020/12/21 05:26:08;;;;;;;24.88;13.93;;;3.40;99.90;;;;;;5071929;28;20025;-71
2020/12/21 05:28:36;;;;;;;23.90;14.07;;;3.30;99.90;;;;;;5071792;28;20029;-73
2020/12/21 05:31:14;;;;;;;29.83;14.82;;;3.20;99.90;;;;;;5072090;28;20480;-69
2020/12/21 05:33:44;;;;;;;23.45;14.02;;;3.20;99.90;;;;;;5071406;28;20034;-74
2020/12/21 05:36:12;;;;;;;26.98;14.65;;;3.20;99.90;;;;;;5071959;28;20032;-74
2020/12/21 05:38:39;;;;;;;21.52;14.38;;;3.20;99.90;;;;;;5072558;28;20080;-70
2020/12/21 05:41:07;;;;;;;24.27;15.95;;;3.20;99.90;;;;;;5079535;28;20024;-74
2020/12/21 05:43:33;;;;;;;42.72;17.65;;;3.20;99.90;;;;;;5075965;28;20079;-71
2020/12/21 05:46:09;;;;;;;34.35;16.08;;;3.30;99.90;;;;;;5045481;28;20029;-73
2020/12/21 05:48:41;;;;;;;27.27;14.55;;;3.30;99.90;;;;;;5033884;28;20094;-72
2020/12/21 05:51:09;;;;;;;23.33;14.95;;;3.30;99.90;;;;;;5031745;28;20296;-70
2020/12/21 05:53:37;;;;;;;21.45;13.45;;;3.30;99.90;;;;;;5032183;28;20026;-73
2020/12/21 05:56:04;;;;;;;21.73;13.50;;;3.30;99.90;;;;;;5071819;28;20469;-71
2020/12/21 05:58:33;;;;;;;29.42;15.68;;;3.30;99.90;;;;;;5074140;28;20115;-69
2020/12/21 06:01:00;;;;;;;27.25;15.20;;;3.30;99.90;;;;;;5071986;28;20025;-72
2020/12/21 06:03:48;;;;;;;31.73;15.23;;;3.30;99.90;;;;;;5060331;28;20021;-71
2020/12/21 06:06:18;;;;;;;23.40;15.73;;;3.30;99.90;;;;;;5031031;28;20464;-70
2020/12/21 06:08:45;;;;;;;20.38;14.02;;;3.40;99.90;;;;;;5029868;28;20543;-71
2020/12/21 06:11:16;;;;;;;25.02;15.18;;;3.30;99.90;;;;;;5028403;28;20040;-70
2020/12/21 06:13:48;;;;;;;23.52;16.45;;;3.30;99.90;;;;;;5030478;28;20565;-70
2020/12/21 06:16:15;;;;;;;;;;;3.20;99.90;;;;;;5029497;28;20029;-70
2020/12/21 06:18:40;;;;;;;53.63;17.73;;;3.30;99.90;;;;;;5030934;28;19987;-70
2020/12/21 06:21:06;;;;;;;22.33;14.32;;;3.20;99.90;;;;;;5031062;28;20056;-70
2020/12/21 06:23:37;;;;;;;39.60;16.95;;;3.20;99.90;;;;;;5030295;28;20053;-74
2020/12/21 06:26:13;;;;;;;21.30;15.55;;;3.00;99.90;;;;;;5049610;28;20029;-71
2020/12/21 06:28:39;;;;;;;31.15;15.70;;;3.10;99.90;;;;;;5050489;28;20081;-71
2020/12/21 06:31:12;;;;;;;25.40;16.27;;;3.10;99.90;;;;;;5049102;28;20024;-70
2020/12/21 06:33:39;;;;;;;25.70;16.60;;;3.20;99.90;;;;;;5049998;28;20029;-70
2020/12/21 06:36:04;;;;;;;55.70;18.25;;;3.20;99.90;;;;;;5048532;28;20032;-71
2020/12/21 06:38:59;;;;;;;29.90;16.30;;;3.20;99.90;;;;;;5050217;28;20037;-72
2020/12/21 06:41:26;;;;;;;72.80;19.27;;;3.20;99.90;;;;;;5048578;28;20116;-71
2020/12/21 06:43:59;;;;;;;29.48;15.75;;;3.30;99.90;;;;;;5049563;28;20033;-70
2020/12/21 06:46:26;;;;;;;23.83;15.65;;;3.30;99.90;;;;;;5050409;28;20029;-70
2020/12/21 06:49:07;;;;;;;22.83;15.75;;;3.30;99.90;;;;;;5049705;28;20021;-72
2020/12/21 06:51:35;;;;;;;28.27;15.68;;;3.30;99.90;;;;;;5050057;28;20029;-70
2020/12/21 06:54:03;;;;;;;28.88;17.77;;;3.30;99.90;;;;;;5040751;28;20156;-71
2020/12/21 06:56:29;;;;;;;25.27;16.58;;;3.30;99.90;;;;;;5039610;28;20511;-72
2020/12/21 06:58:57;;;;;;;25.02;14.93;;;3.30;99.90;;;;;;5039702;28;20029;-71
2020/12/21 07:01:24;;;;;;;22.67;14.55;;;3.40;99.90;;;;;;5041072;28;20351;-71
2020/12/21 07:03:50;;;;;;;20.55;13.45;;;3.40;99.90;;;;;;5047129;28;20404;-70
2020/12/21 07:06:16;;;;;;;52.33;14.85;;;3.20;99.90;;;;;;5049536;28;20150;-76
2020/12/21 07:08:43;;;;;;;55.35;16.67;;;3.50;99.90;;;;;;5050433;28;20045;-76
2020/12/21 07:11:36;;;;;;;42.55;17.30;;;3.60;99.90;;;;;;5049596;28;20025;-77
2020/12/21 07:14:02;;;;;;;23.45;14.43;;;3.60;99.90;;;;;;5046538;28;20044;-76
2020/12/21 07:16:28;;;;;;;25.98;14.35;;;3.60;99.90;;;;;;5049733;28;20097;-77
2020/12/21 07:18:53;;;;;;;25.10;12.75;;;4.10;99.90;;;;;;5049353;28;20024;-75
2020/12/21 07:21:19;;;;;;;17.55;10.50;;;4.50;99.90;;;;;;5049488;28;20025;-69
2020/12/21 07:23:45;;;;;;;11.63;8.75;;;4.50;99.90;;;;;;5032132;28;20097;-70
2020/12/21 07:26:14;;;;;;;15.35;10.05;;;4.20;99.90;;;;;;5069139;28;20021;-74
2020/12/21 07:28:44;;;;;;;15.10;11.60;;;4.00;99.90;;;;;;5069758;28;20037;-73
2020/12/21 07:31:12;;;;;;;13.52;10.35;;;3.90;99.90;;;;;;5067991;28;20120;-74
2020/12/21 07:34:07;;;;;;;17.00;10.60;;;3.80;99.90;;;;;;5068230;28;20032;-72
2020/12/21 07:36:39;;;;;;;43.63;9.88;;;3.70;99.90;;;;;;5060348;28;20488;-70
2020/12/21 07:39:06;;;;;;;;;;;3.70;99.90;;;;;;5072977;28;20043;-71
2020/12/21 07:41:35;;;;;;;11.20;8.85;;;3.70;99.90;;;;;;5036556;28;19920;-74
2020/12/21 07:44:16;;;;;;;13.95;9.93;;;3.60;99.90;;;;;;5033017;28;20493;-72
2020/12/21 07:47:07;;;;;;;15.00;9.85;;;3.50;99.90;;;;;;5033673;28;20034;-70
2020/12/21 07:49:34;;;;;;;15.27;9.63;;;3.50;99.90;;;;;;5032011;28;20057;-71
2020/12/21 07:52:02;;;;;;;14.13;9.60;;;3.40;99.90;;;;;;5033969;28;20033;-69
2020/12/21 07:54:31;;;;;;;18.15;10.95;;;3.40;99.90;;;;;;5050184;28;20092;-72
2020/12/21 07:57:01;;;;;;;18.35;11.27;;;3.40;99.90;;;;;;5074604;28;20078;-71
2020/12/21 07:59:27;;;;;;;17.35;12.18;;;3.50;99.90;;;;;;5073858;28;20127;-75
2020/12/21 08:02:19;;;;;;;16.25;11.27;;;3.60;99.90;;;;;;5074698;28;20108;-69
2020/12/21 08:04:45;;;;;;;19.65;12.88;;;3.70;99.90;;;;;;5075793;28;20138;-70
2020/12/21 08:07:12;;;;;;;61.63;19.65;;;3.80;99.90;;;;;;5073461;28;20103;-72
2020/12/21 08:09:39;;;;;;;36.35;18.35;;;3.80;99.90;;;;;;5049548;28;20108;-72
2020/12/21 08:12:12;;;;;;;26.92;17.88;;;3.80;99.90;;;;;;5031676;28;20029;-76
2020/12/21 08:14:39;;;;;;;31.05;20.88;;;3.80;99.90;;;;;;5032696;28;20036;-70
2020/12/21 08:17:15;;;;;;;32.03;21.77;;;3.90;99.90;;;;;;5036809;28;20061;-71
2020/12/21 08:19:54;;;;;;;30.27;20.55;;;3.80;99.90;;;;;;5035055;28;20076;-75
2020/12/21 08:22:27;;;;;;;27.73;18.55;;;3.80;99.90;;;;;;5034042;28;20021;-72
2020/12/21 08:25:00;;;;;;;25.10;18.15;;;3.80;99.90;;;;;;5056032;28;20028;-71
2020/12/21 08:27:26;;;;;;;25.60;18.08;;;3.90;99.90;;;;;;5072918;28;20047;-70
2020/12/21 08:29:52;;;;;;;25.77;18.40;;;4.10;99.90;;;;;;5073072;28;20469;-71
2020/12/21 08:32:29;;;;;;;26.25;17.35;;;4.20;99.90;;;;;;5073332;28;20028;-73
2020/12/21 08:34:59;;;;;;;27.27;19.17;;;4.30;99.90;;;;;;5072665;28;20021;-71
2020/12/21 08:37:25;;;;;;;27.25;18.20;;;4.30;99.90;;;;;;5073142;28;20388;-72
2020/12/21 08:39:51;;;;;;;22.63;15.52;;;4.30;99.90;;;;;;5057618;28;20520;-70
2020/12/21 08:42:16;;;;;;;23.55;15.88;;;4.40;99.90;;;;;;5031522;28;20022;-71
2020/12/21 08:44:42;;;;;;;21.65;15.38;;;4.40;99.90;;;;;;5032423;28;20446;-69
2020/12/21 08:47:09;;;;;;;18.80;13.20;;;4.50;99.90;;;;;;5031530;28;20022;-73
2020/12/21 08:49:34;;;;;;;18.23;13.23;;;4.50;99.90;;;;;;5030941;28;20034;-71
2020/12/21 08:52:04;;;;;;;19.70;13.55;;;4.40;99.90;;;;;;5032569;28;20025;-74
2020/12/21 08:54:30;;;;;;;28.95;16.75;;;4.50;99.90;;;;;;5047477;28;20013;-69
2020/12/21 08:56:58;;;;;;;22.52;14.68;;;4.60;99.90;;;;;;5072822;28;20024;-69
2020/12/21 08:59:24;;;;;;;37.95;15.57;;;4.40;99.90;;;;;;5072986;28;20028;-73
2020/12/21 09:01:50;;;;;;;18.15;13.30;;;4.40;99.90;;;;;;5071810;28;20059;-74
2020/12/21 09:04:16;;;;;;;22.42;12.60;;;4.30;99.90;;;;;;5071417;28;20067;-69
2020/12/21 09:06:42;;;;;;;50.00;12.85;;;4.40;99.90;;;;;;5054600;28;20143;-69
2020/12/21 09:09:09;;;;;;;27.45;12.52;;;4.40;99.90;;;;;;5032320;28;20029;-69
2020/12/21 09:11:34;;;;;;;21.50;12.48;;;4.30;99.90;;;;;;5032424;28;20204;-71
2020/12/21 09:14:00;;;;;;;22.70;12.82;;;4.30;99.90;;;;;;5031438;28;20124;-69
2020/12/21 09:16:28;;;;;;;18.42;12.52;;;4.30;99.90;;;;;;5032225;28;20033;-69
2020/12/21 09:18:55;;;;;;;26.83;13.30;;;4.40;99.90;;;;;;5031417;28;20116;-69
2020/12/21 09:21:28;;;;;;;17.85;12.05;;;4.20;99.90;;;;;;5031422;28;20021;-72
2020/12/21 09:23:54;;;;;;;;;;;4.30;99.90;;;;;;5034620;28;20377;-70
2020/12/21 09:26:20;;;;;;;14.13;11.35;;;4.40;99.90;;;;;;5051550;28;19905;-70
2020/12/21 09:28:48;;;;;;;16.20;11.45;;;4.30;99.90;;;;;;5051423;28;20028;-68
2020/12/21 09:31:14;;;;;;;15.02;12.07;;;4.50;99.90;;;;;;5051546;28;20029;-75
2020/12/21 09:33:40;;;;;;;14.07;10.90;;;4.60;99.90;;;;;;5051053;28;20449;-71
2020/12/21 09:36:07;;;;;;;15.73;11.45;;;4.70;99.90;;;;;;5051251;28;20048;-69
2020/12/21 09:38:33;;;;;;;11.55;9.98;;;4.80;99.90;;;;;;5051432;28;20025;-69
2020/12/21 09:40:59;;;;;;;16.15;11.57;;;4.80;99.90;;;;;;5051168;28;20017;-69
2020/12/21 09:43:24;;;;;;;14.32;11.18;;;4.80;99.90;;;;;;5049632;28;20029;-70
2020/12/21 09:45:51;;;;;;;11.98;10.30;;;4.90;99.90;;;;;;5050888;28;20021;-70
2020/12/21 09:48:16;;;;;;;12.57;10.23;;;5.00;99.90;;;;;;5050149;28;20201;-69
2020/12/21 09:50:42;;;;;;;12.63;10.02;;;5.10;99.90;;;;;;5051928;28;20099;-70
2020/12/21 09:53:08;;;;;;;11.43;9.80;;;5.20;99.90;;;;;;5051370;28;20477;-72
2020/12/21 09:55:33;;;;;;;13.95;10.30;;;5.20;99.90;;;;;;5057879;28;20035;-77
2020/12/21 09:57:59;;;;;;;12.27;9.52;;;5.30;99.90;;;;;;5074014;28;20028;-75
2020/12/21 10:00:25;;;;;;;12.88;10.40;;;5.40;99.90;;;;;;5055056;28;20029;-70
2020/12/21 10:02:50;;;;;;;11.80;9.73;;;5.60;99.90;;;;;;5051643;28;20033;-71
2020/12/21 10:05:16;;;;;;;16.45;11.00;;;5.60;99.90;;;;;;5051261;28;20112;-70
2020/12/21 10:07:41;;;;;;;12.52;10.73;;;5.60;99.90;;;;;;5053707;28;20078;-70
2020/12/21 10:10:07;;;;;;;14.27;10.73;;;5.70;99.90;;;;;;5053448;28;20036;-70
2020/12/21 10:12:34;;;;;;;14.20;10.23;;;5.70;99.90;;;;;;5053721;28;20029;-71
2020/12/21 10:14:59;;;;;;;14.63;10.82;;;5.80;99.90;;;;;;5052759;28;20071;-71
2020/12/21 10:17:25;;;;;;;10.75;9.63;;;5.70;99.90;;;;;;5053809;28;20473;-72
2020/12/21 10:19:51;;;;;;;14.43;10.30;;;5.80;99.90;;;;;;5052504;28;20500;-73
2020/12/21 10:22:16;;;;;;;12.38;10.32;;;5.90;99.90;;;;;;5051858;28;20017;-70
2020/12/21 10:24:42;;;;;;;13.30;10.18;;;5.90;99.90;;;;;;5060044;28;20037;-72
2020/12/21 10:27:07;;;;;;;12.50;9.70;;;5.90;99.90;;;;;;5070220;28;20028;-70
2020/12/21 10:29:33;;;;;;;12.43;9.85;;;5.90;99.90;;;;;;5070190;28;20029;-71
2020/12/21 10:32:00;;;;;;;11.00;9.35;;;6.00;99.90;;;;;;5070218;28;20021;-72
2020/12/21 10:34:26;;;;;;;10.45;9.18;;;6.10;99.90;;;;;;5070057;28;20024;-72
2020/12/21 10:36:52;;;;;;;10.55;9.40;;;6.10;99.90;;;;;;5071000;28;20027;-71
2020/12/21 10:39:19;;;;;;;12.13;10.52;;;6.20;99.90;;;;;;5070485;28;20120;-70
2020/12/21 10:41:45;;;;;;;10.45;9.18;;;6.30;99.90;;;;;;5068764;28;20484;-70
2020/12/21 10:44:11;;;;;;;13.27;10.18;;;6.30;99.90;;;;;;5034796;28;20036;-73
2020/12/21 10:46:37;;;;;;;12.95;10.35;;;6.50;99.90;;;;;;5029099;28;20029;-69
2020/12/21 10:49:03;;;;;;;11.63;9.27;;;6.30;99.90;;;;;;5030638;28;20324;-70
2020/12/21 10:51:29;;;;;;;9.68;8.55;;;6.30;99.90;;;;;;5029138;28;20500;-71
2020/12/21 10:53:55;;;;;;;10.43;8.63;;;6.30;99.90;;;;;;5035785;28;20056;-71
2020/12/21 10:56:22;;;;;;;11.23;9.27;;;6.50;99.90;;;;;;5071302;28;20380;-70
2020/12/21 10:58:48;;;;;;;12.75;10.98;;;6.60;99.90;;;;;;5072070;28;20028;-70
2020/12/21 11:01:19;;;;;;;12.30;11.00;;;6.60;99.90;;;;;;5072279;28;20408;-70
2020/12/21 11:03:45;;;;;;;11.77;10.57;;;6.60;99.90;;;;;;5071683;28;20021;-73
2020/12/21 11:06:11;;;;;;;11.05;9.77;;;6.70;99.90;;;;;;5073025;28;20052;-70
2020/12/21 11:08:38;;;;;;;10.40;8.77;;;6.80;99.90;;;;;;5071143;28;20502;-69
2020/12/21 11:11:04;;;;;;;12.02;9.07;;;6.90;99.90;;;;;;5070724;28;20356;-69
2020/12/21 11:13:30;;;;;;;11.73;9.00;;;7.00;99.90;;;;;;5069387;28;20052;-71
2020/12/21 11:15:56;;;;;;;12.27;10.27;;;7.00;99.90;;;;;;5070466;28;20035;-69
2020/12/21 11:18:21;;;;;;;11.43;9.93;;;7.00;99.90;;;;;;5070441;28;20021;-70
2020/12/21 11:20:47;;;;;;;11.60;8.88;;;6.90;99.90;;;;;;5070312;28;20025;-69
2020/12/21 11:23:13;;;;;;;9.30;8.30;;;6.90;99.90;;;;;;5061921;28;20079;-72
2020/12/21 11:25:39;;;;;;;11.15;7.93;;;7.00;99.90;;;;;;5067417;28;20020;-73
2020/12/21 11:28:05;;;;;;;10.48;8.52;;;6.90;99.90;;;;;;5070080;28;20416;-69
2020/12/21 11:30:31;;;;;;;9.57;8.32;;;6.80;99.90;;;;;;5050654;28;20029;-71
2020/12/21 11:32:58;;;;;;;9.10;8.13;;;6.80;99.90;;;;;;5049746;28;20085;-71
2020/12/21 11:35:24;;;;;;;9.27;8.30;;;7.00;99.90;;;;;;5049674;28;20106;-69
2020/12/21 11:37:51;;;;;;;9.43;8.38;;;6.90;99.90;;;;;;5049770;28;20469;-69
2020/12/21 11:40:16;;;;;;;10.23;8.70;;;7.20;99.90;;;;;;5049988;28;20033;-69
2020/12/21 11:42:42;;;;;;;11.15;8.68;;;7.20;99.90;;;;;;5049414;28;20017;-69
2020/12/21 11:45:08;;;;;;;13.50;9.63;;;7.30;99.90;;;;;;5041013;28;20053;-68
2020/12/21 11:47:34;;;;;;;17.23;9.68;;;7.40;99.90;;;;;;5029443;28;20108;-71
2020/12/21 11:49:59;;;;;;;10.68;9.57;;;7.50;99.90;;;;;;5049125;28;20028;-71
2020/12/21 11:52:25;;;;;;;10.18;9.02;;;7.50;99.90;;;;;;5052516;28;20056;-81
2020/12/21 11:54:51;;;;;;;11.30;9.25;;;7.40;99.90;;;;;;5052286;28;20033;-81
2020/12/21 11:57:16;;;;;;;11.35;9.43;;;7.40;99.90;;;;;;5056164;28;20029;-78
2020/12/21 11:59:42;;;;;;;12.32;9.05;;;7.40;99.90;;;;;;5061843;28;20158;-81
2020/12/21 12:02:08;;;;;;;11.30;8.57;;;7.40;99.90;;;;;;5063088;28;20067;-78
2020/12/21 12:04:34;;;;;;;13.05;8.82;;;7.50;99.90;;;;;;5052466;28;20033;-78
2020/12/21 12:07:03;;;;;;;10.02;8.15;;;7.60;99.90;;;;;;5052405;28;20111;-78
2020/12/21 12:09:29;;;;;;;9.98;8.70;;;7.80;99.90;;;;;;5049069;28;20033;-73
2020/12/21 12:11:56;;;;;;;13.23;9.60;;;7.90;99.90;;;;;;5042333;28;20029;-70
2020/12/21 12:14:23;;;;;;;11.18;8.25;;;8.00;99.90;;;;;;5028872;28;20033;-71
2020/12/21 12:16:49;;;;;;;10.88;9.00;;;8.00;99.90;;;;;;5035711;28;20029;-73
2020/12/21 12:19:15;;;;;;;14.75;9.02;;;8.10;99.90;;;;;;5029017;28;20307;-73
2020/12/21 12:21:41;;;;;;;20.10;9.63;;;7.90;99.90;;;;;;5047917;28;20485;-70
2020/12/21 12:24:07;;;;;;;12.60;10.00;;;8.00;99.90;;;;;;5049253;28;20055;-72
2020/12/21 12:26:32;;;;;;;11.60;10.15;;;8.00;99.90;;;;;;5052627;28;20029;-70
2020/12/21 12:28:58;;;;;;;14.65;9.50;;;8.10;99.90;;;;;;5052841;28;20528;-72
2020/12/21 12:31:24;;;;;;;11.02;8.48;;;8.20;99.90;;;;;;5051411;28;20179;-72
2020/12/21 12:33:51;;;;;;;10.57;8.57;;;8.70;99.90;;;;;;5051959;28;20032;-72
2020/12/21 12:36:22;;;;;;;16.98;10.43;;;9.10;99.90;;;;;;5053014;28;20198;-73
2020/12/21 12:38:48;;;;;;;11.32;8.57;;;9.30;99.90;;;;;;5052629;28;20469;-72
2020/12/21 12:41:14;;;;;;;11.88;8.68;;;9.20;99.90;;;;;;5051441;28;20039;-72
2020/12/21 12:43:40;;;;;;;13.50;9.05;;;9.00;99.90;;;;;;5039965;28;20025;-72